KNGP/NGP METAR and TAF weather

Enter ICAO airport designator
Station Type Date Time Source
KNGP METAR 2020/02/16 19:56 UTC NOAA

KNGP 161956Z AUTO 07007KT 10SM FEW024 OVC037 22/19 A2998 RMK AO2 CIG 025 SLP152 T02170194


Station Type Date Time Source
KNGP Decoded METAR 2020/02/16 19:56 UTC NOAA

CORPUS CHRISTI NAVAL AIR STN, TX, United States (KNGP) 27-41N 097-17W
Feb 16, 2020 - 02:56 PM EST / 2020.02.16 1956 UTC
Wind: from the ENE (070 degrees) at 8 MPH (7 KT):0
Visibility: 10 mile(s):0
Sky conditions: overcast
Temperature: 71.1 F (21.7 C)
Dew Point: 66.9 F (19.4 C)
Relative Humidity: 86%
Pressure (altimeter): 29.98 in. Hg (1015 hPa)
ob: KNGP 161956Z AUTO 07007KT 10SM FEW024 OVC037 22/19 A2998 RMK AO2 CIG 025 SLP152 T02170194
cycle: 20

Station Type Date Time Source
KNGP TAF 2020/02/16 16:56 UTC NOAA

TAF
AMD KNGP 1616/1715 VRB06KT 9999 BKN003 BKN020 QNH3000INS
TEMPO 1616/1618 1600 BR
FM161800 VRB06KT 9999 BKN015 OVC025 QNH2995INS
FM162100 12010KT 9999 SCT015 BKN025 QNH2988INS
BECMG 1704/1706 15010KT 9000 BR SCT003 BKN010 QNH2980INS
FM170800 VRB06KT 3200 BR SCT003 BKN010 QNH2980INS
TEMPO 1708/1714 0800 FG AUTOMATED SENSOR METWATCH 1615 TIL 1812 T23/1621Z T18/1712Z
AMD 1652 FN00204

Example: see airport list